createdAt,value
2022-11-01T00:03:26.686Z,101225.34
2022-11-01T00:08:29.213Z,101234.63
2022-11-01T00:13:31.808Z,101243.09
2022-11-01T00:18:34.032Z,101220.31
2022-11-01T00:23:37.530Z,101227.09
2022-11-01T00:28:39.972Z,101209.91
2022-11-01T00:33:42.559Z,101227.94
2022-11-01T00:38:44.743Z,101220.47
2022-11-01T00:43:47.056Z,101218.94
2022-11-01T00:48:50.037Z,101232.41
2022-11-01T00:53:52.452Z,101232.47
2022-11-01T00:58:54.661Z,101239.69
2022-11-01T01:03:56.890Z,101235.53
2022-11-01T01:09:00.917Z,101243.81
2022-11-01T01:14:03.326Z,101230.13
2022-11-01T01:19:05.700Z,101235.22
2022-11-01T01:24:08.062Z,101232.19
2022-11-01T01:29:10.378Z,101218.06
2022-11-01T01:34:12.571Z,101232.28
2022-11-01T01:39:14.998Z,101232.47
2022-11-01T01:44:50.419Z,101234.44
2022-11-01T01:50:12.697Z,101238.16
2022-11-01T01:55:19.265Z,101232.25
2022-11-01T02:00:21.795Z,101238.31
2022-11-01T02:05:50.279Z,101254.97
2022-11-01T02:10:52.929Z,101264.66
2022-11-01T02:16:19.802Z,101266.81
2022-11-01T02:21:24.741Z,101268.81
2022-11-01T02:26:49.359Z,101232.84
2022-11-01T02:32:21.140Z,101270.41
2022-11-01T02:37:54.249Z,101261.06
2022-11-01T02:43:05.693Z,101275.84
2022-11-01T02:48:08.217Z,101271.34
2022-11-01T02:53:11.237Z,101285.09
2022-11-01T02:58:29.212Z,101274.94
2022-11-01T03:03:36.425Z,101273.09
2022-11-01T03:08:45.765Z,101282.31
2022-11-01T03:13:54.126Z,101291.03
2022-11-01T03:19:05.356Z,101295.06
2022-11-01T03:24:30.367Z,101296.97
2022-11-01T03:29:35.799Z,101297.38
2022-11-01T03:34:39.739Z,101322.38
2022-11-01T03:39:44.234Z,101332.47
2022-11-01T03:44:51.194Z,101280.66
2022-11-01T03:50:16.751Z,101328.63
2022-11-01T03:55:20.499Z,101329.78
2022-11-01T04:00:26.949Z,101333.84
2022-11-01T04:05:31.655Z,101320.25
2022-11-01T04:10:34.430Z,101300.97
2022-11-01T04:15:55.499Z,101314.72
2022-11-01T04:20:58.304Z,101313.06
2022-11-01T04:26:00.600Z,101320.59
2022-11-01T04:31:03.072Z,101329.84
2022-11-01T04:36:09.079Z,101349.00
2022-11-01T04:41:12.126Z,101357.22
2022-11-01T04:46:14.816Z,101358.19
2022-11-01T04:51:17.420Z,101350.66
2022-11-01T04:56:19.568Z,101368.94
2022-11-01T05:01:22.149Z,101348.63
2022-11-01T05:06:24.586Z,101356.34
2022-11-01T05:11:27.043Z,101376.50
2022-11-01T05:16:29.289Z,101375.31
2022-11-01T05:21:31.534Z,101385.06
2022-11-01T05:26:34.166Z,101405.03
2022-11-01T05:31:37.343Z,101407.56
2022-11-01T05:36:40.196Z,101389.59
2022-11-01T05:41:42.388Z,101398.66
2022-11-01T05:46:44.911Z,101421.47
2022-11-01T05:51:47.444Z,101425.00
2022-11-01T05:56:49.985Z,101429.38
2022-11-01T06:01:52.530Z,101443.44
2022-11-01T06:06:54.813Z,101448.28
2022-11-01T06:11:57.177Z,101448.09
2022-11-01T06:16:59.532Z,101428.28
2022-11-01T06:22:01.921Z,101467.50
2022-11-01T06:27:07.433Z,101468.00
2022-11-01T06:32:12.358Z,101470.78
2022-11-01T06:37:14.631Z,101461.34
2022-11-01T06:42:17.075Z,101473.69
2022-11-01T06:47:19.441Z,101465.56
2022-11-01T06:52:21.750Z,101468.34
2022-11-01T06:57:24.332Z,101479.09
2022-11-01T07:02:29.595Z,101481.47
2022-11-01T07:07:32.333Z,101463.53
2022-11-01T07:12:34.653Z,101494.38
2022-11-01T07:17:37.020Z,101495.03
2022-11-01T07:22:39.378Z,101492.16
2022-11-01T07:27:41.806Z,101482.88
2022-11-01T07:32:44.099Z,101478.91
2022-11-01T07:37:46.318Z,101489.31
2022-11-01T07:42:48.562Z,101487.97
2022-11-01T07:47:51.100Z,101486.78
2022-11-01T07:53:07.788Z,101468.13
2022-11-01T07:58:11.189Z,101475.00
2022-11-01T08:03:18.645Z,101489.34
2022-11-01T08:08:21.065Z,101467.34
2022-11-01T08:13:25.429Z,101466.63
2022-11-01T08:18:27.666Z,101461.13
2022-11-01T08:23:30.205Z,101469.72
2022-11-01T08:28:33.516Z,101466.88
2022-11-01T08:33:36.092Z,101455.69
2022-11-01T08:38:38.442Z,101464.94
2022-11-01T08:43:40.940Z,101437.38
2022-11-01T08:48:43.360Z,101455.41
2022-11-01T08:53:45.528Z,101420.34
2022-11-01T08:58:49.880Z,101460.44
2022-11-01T09:03:53.670Z,101458.13
2022-11-01T09:08:56.535Z,101448.78
2022-11-01T09:13:59.262Z,101463.34
2022-11-01T09:19:02.261Z,101435.34
2022-11-01T09:24:04.658Z,101436.56
2022-11-01T09:29:06.948Z,101430.25
2022-11-01T09:34:09.091Z,101435.19
2022-11-01T09:39:11.503Z,101433.41
2022-11-01T09:44:26.620Z,101406.00
2022-11-01T09:49:33.700Z,101402.41
2022-11-01T09:54:36.029Z,101420.78
2022-11-01T09:59:41.335Z,101418.56
2022-11-01T10:05:08.558Z,101415.94
2022-11-01T10:10:32.487Z,101398.47
2022-11-01T10:16:00.399Z,101386.31
2022-11-01T10:21:09.135Z,101377.94
2022-11-01T10:26:16.925Z,101397.28
2022-11-01T10:31:24.216Z,101386.31
2022-11-01T10:41:50.927Z,101356.34
2022-11-01T10:46:53.979Z,101357.59
2022-11-01T10:52:03.190Z,101352.53
2022-11-01T10:57:10.968Z,101357.31
2022-11-01T11:02:38.968Z,101341.69
2022-11-01T11:07:41.990Z,101352.28
2022-11-01T11:12:46.714Z,101324.88
2022-11-01T11:17:55.147Z,101340.16
2022-11-01T11:23:02.375Z,101335.66
2022-11-01T11:28:06.092Z,101325.06
2022-11-01T11:33:18.337Z,101318.44
2022-11-01T11:38:42.026Z,101310.53
2022-11-01T11:43:44.282Z,101319.41
2022-11-01T11:48:52.905Z,101303.09
2022-11-01T11:54:21.574Z,101311.69
2022-11-01T11:59:30.049Z,101303.00
2022-11-01T12:04:40.925Z,101275.63
2022-11-01T12:09:48.725Z,101292.53
2022-11-01T12:14:52.642Z,101293.19
2022-11-01T12:20:14.448Z,101279.25
2022-11-01T12:25:25.453Z,101276.38
2022-11-01T12:30:31.432Z,101269.06
2022-11-01T12:35:44.791Z,101270.03
2022-11-01T12:40:51.000Z,101252.34
2022-11-01T12:46:03.205Z,101243.69
2022-11-01T12:51:12.779Z,101265.00
2022-11-01T12:56:15.365Z,101259.38
2022-11-01T13:01:24.879Z,101255.00
2022-11-01T13:06:45.567Z,101255.25
2022-11-01T13:12:25.837Z,101246.97
2022-11-01T13:17:56.993Z,101251.59
2022-11-01T13:23:12.044Z,101249.72
2022-11-01T13:28:26.502Z,101257.47
2022-11-01T13:33:40.690Z,101248.13
2022-11-01T13:38:53.553Z,101235.56
2022-11-01T13:44:03.361Z,101246.66
2022-11-01T13:49:11.078Z,101240.72
2022-11-01T13:54:32.932Z,101236.97
2022-11-01T13:59:37.957Z,101236.78
2022-11-01T14:04:40.802Z,101205.78
2022-11-01T14:09:52.303Z,101225.09
2022-11-01T14:14:54.565Z,101213.34
2022-11-01T14:19:56.806Z,101232.09
2022-11-01T14:25:24.654Z,101195.88
2022-11-01T14:30:32.694Z,101226.47
2022-11-01T14:35:38.128Z,101225.94
2022-11-01T14:40:53.858Z,101228.13
2022-11-01T14:46:14.676Z,101226.97
2022-11-01T14:51:38.269Z,101209.50
2022-11-01T14:56:41.282Z,101213.94
2022-11-01T15:01:49.473Z,101230.91
2022-11-01T15:06:52.525Z,101218.13
2022-11-01T15:12:05.774Z,101213.03
2022-11-01T15:17:23.278Z,101226.13
2022-11-01T15:22:32.461Z,101217.16
2022-11-01T15:27:45.191Z,101213.63
2022-11-01T15:32:53.762Z,101212.72
2022-11-01T15:37:57.738Z,101217.25
2022-11-01T15:43:02.116Z,101218.66
2022-11-01T15:48:12.845Z,101230.28
2022-11-01T15:53:20.942Z,101229.50
2022-11-01T15:58:32.609Z,101226.91
2022-11-01T16:03:45.505Z,101228.56
2022-11-01T16:08:53.861Z,101213.97
2022-11-01T16:14:07.716Z,101238.59
2022-11-01T16:19:28.305Z,101213.06
2022-11-01T16:24:32.653Z,101231.22
2022-11-01T16:29:51.771Z,101251.81
2022-11-01T16:34:55.844Z,101236.19
2022-11-01T16:40:00.955Z,101255.75
2022-11-01T16:45:03.486Z,101242.38
2022-11-01T16:50:06.098Z,101270.31
2022-11-01T16:55:08.804Z,101262.91
2022-11-01T17:00:14.272Z,101271.66
2022-11-01T17:05:24.111Z,101251.03
2022-11-01T17:10:26.673Z,101256.38
2022-11-01T17:15:29.745Z,101273.53
2022-11-01T17:20:32.714Z,101283.16
2022-11-01T17:25:34.889Z,101284.28
2022-11-01T17:30:37.555Z,101244.16
2022-11-01T17:35:40.820Z,101261.06
2022-11-01T17:40:46.138Z,101255.97
2022-11-01T17:45:49.902Z,101250.16
2022-11-01T17:50:52.264Z,101246.03
2022-11-01T17:55:58.302Z,101286.31
2022-11-01T18:01:00.550Z,101276.38
2022-11-01T18:06:03.082Z,101285.97
2022-11-01T18:11:32.811Z,101314.34
2022-11-01T18:16:55.135Z,101308.97
2022-11-01T18:22:06.151Z,101304.81
2022-11-01T18:27:13.980Z,101286.69
2022-11-01T18:32:22.723Z,101310.03
2022-11-01T18:38:03.552Z,101299.81
2022-11-01T18:43:09.038Z,101275.84
2022-11-01T18:48:24.955Z,101293.16
2022-11-01T18:53:29.983Z,101273.56
2022-11-01T18:58:40.507Z,101295.47
2022-11-01T19:03:43.013Z,101294.81
2022-11-01T19:08:53.040Z,101280.81
2022-11-01T19:13:59.752Z,101290.59
2022-11-01T19:19:01.956Z,101293.09
2022-11-01T19:24:17.019Z,101280.56
2022-11-01T19:29:26.561Z,101310.16
2022-11-01T19:34:30.454Z,101328.47
2022-11-01T19:39:38.627Z,101335.34
2022-11-01T19:44:40.913Z,101305.69
2022-11-01T19:49:43.520Z,101329.59
2022-11-01T19:54:49.970Z,101330.84
2022-11-01T19:59:53.612Z,101337.91
2022-11-01T20:04:59.971Z,101310.28
2022-11-01T20:10:02.824Z,101323.19
2022-11-01T20:15:05.272Z,101329.84
2022-11-01T20:20:08.062Z,101303.03
2022-11-01T20:25:10.325Z,101320.75
2022-11-01T20:30:12.810Z,101316.53
2022-11-01T20:35:15.122Z,101316.09
2022-11-01T20:40:17.651Z,101301.63
2022-11-01T20:45:19.942Z,101320.31
2022-11-01T20:50:22.208Z,101329.03
2022-11-01T20:55:24.719Z,101294.94
2022-11-01T21:00:27.632Z,101312.91
2022-11-01T21:05:31.826Z,101317.25
2022-11-01T21:10:40.504Z,101329.72
2022-11-01T21:15:46.649Z,101313.78
2022-11-01T21:20:50.366Z,101322.56
2022-11-01T21:25:58.296Z,101326.72
2022-11-01T21:31:20.776Z,101310.59
2022-11-01T21:36:23.106Z,101326.38
2022-11-01T21:41:45.586Z,101323.47
2022-11-01T21:46:55.652Z,101321.47
2022-11-01T21:52:01.064Z,101314.78
2022-11-01T21:57:05.911Z,101335.78
2022-11-01T22:02:11.813Z,101331.16
2022-11-01T22:07:14.285Z,101317.97
2022-11-01T22:12:17.082Z,101300.78
2022-11-01T22:17:19.536Z,101324.84
2022-11-01T22:22:21.754Z,101300.91
2022-11-01T22:27:23.997Z,101292.59
2022-11-01T22:32:26.168Z,101320.28
2022-11-01T22:37:30.888Z,101300.66
2022-11-01T22:42:33.098Z,101281.00
2022-11-01T22:47:35.719Z,101300.31
2022-11-01T22:52:41.785Z,101323.97
2022-11-01T22:57:58.688Z,101319.31
2022-11-01T23:03:20.336Z,101304.81
2022-11-01T23:08:30.032Z,101284.94
2022-11-01T23:13:51.803Z,101312.25
2022-11-01T23:19:01.816Z,101301.13
2022-11-01T23:24:04.509Z,101277.31
2022-11-01T23:29:06.812Z,101288.09
2022-11-01T23:34:11.135Z,101247.94
2022-11-01T23:39:15.184Z,101285.94
2022-11-01T23:44:31.317Z,101297.59
2022-11-01T23:49:35.252Z,101260.22
2022-11-01T23:54:43.392Z,101297.22
2022-11-01T23:59:46.222Z,101277.13
